Pays
Station

 

Conditions  météo  pour  Vestmannaeyjar  -  Islande    Islande

  
7 °C
    
 
 

METAR pour Vestmannaeyjar :

BIVM 191100Z 08020KT 9999 VCSH SCT012 SCT025 07/06 Q0982

 

Voici le bulletin pour Vestmannaeyjar - Islande.
 
Le bulletin a été fait il y a 28 minutes, à 11:00 UTC .
Le vent soufflait à la vitesse de 10.3 mètres par seconde de Est (080°).
 
La température était de 7 °C, avec un point de rosée à 6 °C.
La pression atmosphérique était de 982 hPa.
L'humidité relative était de 93.3%.
 
Il y avait 3 à 4/8ème de nébulosité à une hauteur de 366 mètres et 3 à 4/8ème de nébulosité à une hauteur de 762 mètres.
 
La visibilité globale était de supérieure à 10 kilomètres.
 
Actuellement averses de à proximité.

 
 
 

Pays :   A   B   C   D   E   F   G   H   I   J   K   L   M   N   O   P   Q   R   S   T   U   V   W   Y   Z

 

Partenaires :  Info Météo avec Met'info
Météo Marine avec MeteoMarine.net
Infos Site  |  Infos Légales  |  Crédits  |  Confidentialité
Contactez-nous  |  Ajouter aux favoris
© 2013-2018 METAR - Tous droits réservés